createdAt,value
2023-04-12T05:03:19.188Z,95321.00
2023-04-12T05:04:20.131Z,95321.00
2023-04-12T05:05:20.133Z,95321.00
2023-04-12T05:06:19.186Z,95321.00
2023-04-12T05:07:20.177Z,95323.00
2023-04-12T05:08:20.233Z,95325.00
2023-04-12T05:09:20.264Z,95321.00
2023-04-12T05:10:20.305Z,95323.00
2023-04-12T05:11:20.338Z,95323.00
2023-04-12T05:12:19.334Z,95327.00
2023-04-12T05:13:20.344Z,95331.00
2023-04-12T05:14:20.463Z,95331.00
2023-04-12T05:15:19.332Z,95325.00
2023-04-12T05:16:20.369Z,95323.00
2023-04-12T05:17:19.343Z,95325.00
2023-04-12T05:18:20.390Z,95319.00
2023-04-12T05:19:20.438Z,95317.00
2023-04-12T05:20:20.450Z,95310.00
2023-04-12T05:21:21.040Z,95310.00
2023-04-12T05:22:19.674Z,95308.00
2023-04-12T05:23:20.719Z,95310.00
2023-04-12T05:24:19.741Z,95308.00
2023-04-12T05:25:20.761Z,95310.00
2023-04-12T05:26:19.785Z,95308.00
2023-04-12T05:27:19.831Z,95310.00
2023-04-12T05:28:20.858Z,95311.00
2023-04-12T05:29:19.852Z,95313.00
2023-04-12T05:30:19.876Z,95308.00
2023-04-12T05:31:19.954Z,95310.00
2023-04-12T05:32:20.997Z,95310.00
2023-04-12T05:33:20.012Z,95308.00
2023-04-12T05:34:21.021Z,95311.00
2023-04-12T05:35:21.080Z,95306.00
2023-04-12T05:36:20.060Z,95304.00
2023-04-12T05:37:20.079Z,95306.00
2023-04-12T05:38:20.045Z,95308.00
2023-04-12T05:39:21.045Z,95304.00
2023-04-12T05:40:21.040Z,95300.00
2023-04-12T05:41:21.071Z,95298.00
2023-04-12T05:42:21.098Z,95300.00
2023-04-12T05:43:21.761Z,95296.00
2023-04-12T05:44:21.243Z,95292.00
2023-04-12T05:45:20.273Z,95292.00
2023-04-12T05:46:21.397Z,95292.00
2023-04-12T05:47:21.398Z,95296.00
2023-04-12T05:48:20.443Z,95294.00
2023-04-12T05:49:21.618Z,95288.00
2023-04-12T05:50:20.533Z,95290.00
2023-04-12T05:51:30.699Z,95286.00
2023-04-12T05:52:21.776Z,95282.00
2023-04-12T05:53:21.630Z,95286.00
2023-04-12T05:54:20.557Z,95284.00
2023-04-12T05:55:21.556Z,95282.00
2023-04-12T05:56:21.567Z,95284.00
2023-04-12T05:57:21.546Z,95284.00
2023-04-12T05:58:21.536Z,95282.00
2023-04-12T05:59:20.575Z,95284.00
2023-04-12T06:00:20.525Z,95278.00
2023-04-12T06:01:20.509Z,95274.00
2023-04-12T06:02:20.848Z,95270.00
2023-04-12T06:03:20.681Z,95276.00
2023-04-12T06:04:21.679Z,95276.00
2023-04-12T06:05:21.481Z,95274.00
2023-04-12T06:06:21.458Z,95272.00
2023-04-12T06:07:21.505Z,95266.00
2023-04-12T06:08:21.466Z,95268.00
2023-04-12T06:09:21.452Z,95263.00
2023-04-12T06:10:21.448Z,95264.00
2023-04-12T06:11:21.453Z,95263.00
2023-04-12T06:12:20.419Z,95263.00
2023-04-12T06:13:21.415Z,95263.00
2023-04-12T06:14:21.415Z,95263.00
2023-04-12T06:15:20.448Z,95259.00
2023-04-12T06:16:20.513Z,95255.00
2023-04-12T06:17:21.420Z,95257.00
2023-04-12T06:18:21.390Z,95257.00
2023-04-12T06:19:21.377Z,95249.00
2023-04-12T06:20:21.368Z,95245.00
2023-04-12T06:21:21.348Z,95249.00
2023-04-12T06:22:21.362Z,95247.00
2023-04-12T06:23:21.369Z,95247.00
2023-04-12T06:24:20.341Z,95241.00
2023-04-12T06:25:20.329Z,95241.00
2023-04-12T06:26:21.329Z,95239.00
2023-04-12T06:27:21.325Z,95237.00
2023-04-12T06:28:21.314Z,95239.00
2023-04-12T06:29:21.360Z,95235.00
2023-04-12T06:30:21.385Z,95235.00
2023-04-12T06:31:20.475Z,95233.00
2023-04-12T06:32:21.494Z,95231.00
2023-04-12T06:33:21.705Z,95231.00
2023-04-12T06:34:21.578Z,95231.00
2023-04-12T06:35:21.606Z,95229.00
2023-04-12T06:36:21.591Z,95231.00
2023-04-12T06:37:20.622Z,95231.00
2023-04-12T06:38:20.697Z,95233.00
2023-04-12T06:39:20.737Z,95233.00
2023-04-12T06:40:21.772Z,95233.00
2023-04-12T06:41:21.834Z,95231.00
2023-04-12T06:42:21.905Z,95225.00
2023-04-12T06:43:20.958Z,95225.00
2023-04-12T06:44:22.026Z,95225.00
2023-04-12T06:45:22.183Z,95221.00
2023-04-12T06:46:22.176Z,95221.00
2023-04-12T06:47:22.361Z,95223.00
2023-04-12T06:48:22.261Z,95221.00
2023-04-12T06:49:22.608Z,95219.00
2023-04-12T06:50:21.381Z,95214.00
2023-04-12T06:51:21.424Z,95212.00
2023-04-12T06:52:21.783Z,95206.00
2023-04-12T06:53:22.539Z,95208.00
2023-04-12T06:54:22.602Z,95204.00
2023-04-12T06:55:22.696Z,95202.00
2023-04-12T06:56:22.706Z,95200.00
2023-04-12T06:57:22.798Z,95200.00
2023-04-12T06:58:22.833Z,95200.00
2023-04-12T06:59:22.895Z,95200.00
2023-04-12T07:00:21.954Z,95198.00
2023-04-12T07:01:23.061Z,95196.00
2023-04-12T07:02:23.100Z,95194.00
2023-04-12T07:03:23.089Z,95194.00
2023-04-12T07:04:23.113Z,95194.00
2023-04-12T07:05:22.014Z,95192.00
2023-04-12T07:06:25.660Z,95190.00
2023-04-12T07:07:23.027Z,95192.00
2023-04-12T07:08:21.992Z,95190.00
2023-04-12T07:09:22.991Z,95190.00
2023-04-12T07:10:22.975Z,95184.00
2023-04-12T07:11:23.472Z,95180.00
2023-04-12T07:12:22.999Z,95174.00
2023-04-12T07:13:22.942Z,95178.00
2023-04-12T07:14:21.960Z,95178.00
2023-04-12T07:15:22.945Z,95178.00
2023-04-12T07:16:22.934Z,95176.00
2023-04-12T07:17:22.111Z,95174.00
2023-04-12T07:18:22.911Z,95172.00
2023-04-12T07:19:22.913Z,95172.00
2023-04-12T07:20:22.899Z,95172.00
2023-04-12T07:21:22.041Z,95170.00
2023-04-12T07:22:22.911Z,95165.00
2023-04-12T07:23:21.884Z,95165.00
2023-04-12T07:24:21.880Z,95165.00
2023-04-12T07:25:22.907Z,95163.00
2023-04-12T07:26:22.871Z,95151.00
2023-04-12T07:27:22.877Z,95151.00
2023-04-12T07:28:22.828Z,95147.00
2023-04-12T07:29:21.843Z,95143.00
2023-04-12T07:30:22.823Z,95145.00
2023-04-12T07:31:22.817Z,95145.00
2023-04-12T07:32:23.012Z,95145.00
2023-04-12T07:33:22.989Z,95145.00
2023-04-12T07:34:23.069Z,95143.00
2023-04-12T07:35:22.786Z,95141.00
2023-04-12T07:36:21.826Z,95145.00
2023-04-12T07:37:22.773Z,95147.00
2023-04-12T07:38:22.792Z,95147.00
2023-04-12T07:39:22.814Z,95147.00
2023-04-12T07:40:22.767Z,95147.00
2023-04-12T07:41:22.747Z,95147.00
2023-04-12T07:42:22.763Z,95143.00
2023-04-12T07:43:22.810Z,95145.00
2023-04-12T07:44:22.774Z,95147.00
2023-04-12T07:45:22.781Z,95151.00
2023-04-12T07:46:22.874Z,95149.00
2023-04-12T07:47:22.867Z,95151.00
2023-04-12T07:48:21.698Z,95153.00
2023-04-12T07:49:22.695Z,95155.00
2023-04-12T07:50:22.678Z,95147.00
2023-04-12T07:51:22.677Z,95151.00
2023-04-12T07:52:22.858Z,95155.00
2023-04-12T07:53:22.656Z,95153.00
2023-04-12T07:54:23.550Z,95147.00
2023-04-12T07:55:21.638Z,95149.00
2023-04-12T07:56:21.638Z,95149.00
2023-04-12T07:57:22.630Z,95147.00
2023-04-12T07:58:22.626Z,95147.00
2023-04-12T07:59:22.634Z,95147.00
2023-04-12T08:00:21.602Z,95145.00
2023-04-12T08:01:22.623Z,95141.00
2023-04-12T08:02:21.780Z,95141.00
2023-04-12T08:03:23.774Z,95141.00
2023-04-12T08:04:22.983Z,95139.00
2023-04-12T08:05:22.911Z,95137.00
2023-04-12T08:06:21.886Z,95139.00
2023-04-12T08:07:23.014Z,95139.00
2023-04-12T08:08:23.172Z,95139.00
2023-04-12T08:09:23.067Z,95135.00
2023-04-12T08:10:23.138Z,95135.00
2023-04-12T08:11:23.186Z,95135.00
2023-04-12T08:12:23.306Z,95131.00
2023-04-12T08:13:22.295Z,95133.00
2023-04-12T08:14:22.345Z,95135.00
2023-04-12T08:15:22.520Z,95137.00
2023-04-12T08:16:23.507Z,95133.00
2023-04-12T08:17:22.501Z,95135.00
2023-04-12T08:18:23.538Z,95131.00
2023-04-12T08:19:23.563Z,95135.00
2023-04-12T08:20:23.639Z,95135.00
2023-04-12T08:21:23.653Z,95139.00
2023-04-12T08:22:22.690Z,95137.00
2023-04-12T08:23:23.714Z,95135.00
2023-04-12T08:24:23.745Z,95131.00
2023-04-12T08:25:23.810Z,95131.00
2023-04-12T08:26:22.814Z,95129.00
2023-04-12T08:27:23.848Z,95129.00
2023-04-12T08:28:23.899Z,95125.00
2023-04-12T08:29:23.932Z,95125.00
2023-04-12T08:30:23.956Z,95125.00
2023-04-12T08:31:23.371Z,95125.00
2023-04-12T08:32:23.096Z,95127.00
2023-04-12T08:33:23.048Z,95129.00
2023-04-12T08:34:24.068Z,95123.00
2023-04-12T08:35:23.158Z,95121.00
2023-04-12T08:36:23.135Z,95121.00
2023-04-12T08:37:24.172Z,95123.00
2023-04-12T08:38:37.214Z,95123.00
2023-04-12T08:39:24.197Z,95117.00
2023-04-12T08:40:24.192Z,95116.00
2023-04-12T08:41:23.185Z,95116.00
2023-04-12T08:42:24.319Z,95114.00
2023-04-12T08:43:24.150Z,95116.00
2023-04-12T08:44:24.152Z,95116.00
2023-04-12T08:45:23.139Z,95112.00
2023-04-12T08:46:24.158Z,95110.00
2023-04-12T08:47:23.596Z,95110.00
2023-04-12T08:48:24.130Z,95108.00
2023-04-12T08:49:24.137Z,95110.00
2023-04-12T08:50:24.102Z,95108.00
2023-04-12T08:51:24.127Z,95112.00
2023-04-12T08:52:24.101Z,95110.00
2023-04-12T08:53:23.091Z,95110.00
2023-04-12T08:54:24.084Z,95116.00
2023-04-12T08:55:24.114Z,95116.00
2023-04-12T08:56:24.057Z,95117.00
2023-04-12T08:57:24.328Z,95121.00
2023-04-12T08:58:24.061Z,95123.00
2023-04-12T08:59:24.061Z,95119.00
2023-04-12T09:00:23.042Z,95117.00
2023-04-12T09:01:23.048Z,95116.00
2023-04-12T09:02:24.311Z,95116.00
2023-04-12T09:03:23.326Z,95114.00
2023-04-12T09:04:23.150Z,95114.00
2023-04-12T09:05:24.098Z,95110.00
2023-04-12T09:06:24.033Z,95110.00
2023-04-12T09:07:22.973Z,95112.00
2023-04-12T09:08:23.987Z,95114.00
2023-04-12T09:09:22.966Z,95123.00
2023-04-12T09:10:23.996Z,95123.00
2023-04-12T09:11:23.952Z,95121.00
2023-04-12T09:12:23.948Z,95119.00
2023-04-12T09:13:23.951Z,95117.00
2023-04-12T09:14:23.926Z,95112.00
2023-04-12T09:15:23.926Z,95110.00
2023-04-12T09:16:23.936Z,95102.00
2023-04-12T09:17:23.957Z,95094.00
2023-04-12T09:18:23.917Z,95094.00
2023-04-12T09:19:23.918Z,95094.00
2023-04-12T09:20:22.992Z,95094.00
2023-04-12T09:21:23.969Z,95090.00
2023-04-12T09:22:22.953Z,95088.00
2023-04-12T09:23:24.021Z,95084.00
2023-04-12T09:24:23.994Z,95082.00
2023-04-12T09:25:23.974Z,95080.00
2023-04-12T09:26:23.988Z,95082.00
2023-04-12T09:27:23.032Z,95086.00
2023-04-12T09:28:23.177Z,95084.00
2023-04-12T09:29:24.236Z,95088.00
2023-04-12T09:30:24.146Z,95084.00
2023-04-12T09:31:24.196Z,95078.00
2023-04-12T09:32:24.267Z,95072.00
2023-04-12T09:33:23.190Z,95067.00
2023-04-12T09:34:26.513Z,95065.00
2023-04-12T09:35:24.273Z,95061.00
2023-04-12T09:36:23.213Z,95063.00
2023-04-12T09:37:24.177Z,95061.00
2023-04-12T09:38:24.168Z,95061.00
2023-04-12T09:39:24.167Z,95063.00
2023-04-12T09:40:24.135Z,95061.00
2023-04-12T09:41:26.717Z,95061.00
2023-04-12T09:42:33.279Z,95059.00
2023-04-12T09:43:24.140Z,95057.00
2023-04-12T09:44:24.115Z,95057.00
2023-04-12T09:45:24.232Z,95055.00
2023-04-12T09:46:24.242Z,95049.00
2023-04-12T09:47:23.151Z,95041.00
2023-04-12T09:48:24.365Z,95035.00
2023-04-12T09:49:24.080Z,95039.00
2023-04-12T09:50:24.067Z,95033.00
2023-04-12T09:51:24.104Z,95035.00
2023-04-12T09:52:23.058Z,95033.00
2023-04-12T09:53:24.358Z,95031.00
2023-04-12T09:54:23.030Z,95023.00
2023-04-12T09:55:23.070Z,95022.00
2023-04-12T09:56:23.057Z,95016.00
2023-04-12T09:57:24.043Z,95014.00
2023-04-12T09:58:24.101Z,95012.00
2023-04-12T09:59:24.080Z,95010.00
2023-04-12T10:00:23.001Z,95010.00
2023-04-12T10:01:24.133Z,95008.00
2023-04-12T10:02:24.134Z,95008.00
2023-04-12T10:03:24.228Z,95004.00
2023-04-12T10:04:23.126Z,95006.00
2023-04-12T10:05:24.220Z,95002.00
2023-04-12T10:06:23.965Z,94998.00
2023-04-12T10:07:23.957Z,94998.00
2023-04-12T10:08:23.976Z,94998.00
2023-04-12T10:09:23.906Z,95000.00
2023-04-12T10:10:23.900Z,95004.00
2023-04-12T10:11:22.905Z,95000.00
2023-04-12T10:12:24.107Z,95002.00
2023-04-12T10:13:22.937Z,95000.00
2023-04-12T10:14:22.937Z,94998.00
2023-04-12T10:15:23.879Z,94994.00
2023-04-12T10:16:23.919Z,94990.00
2023-04-12T10:17:23.892Z,94984.00
2023-04-12T10:18:22.872Z,94982.00
2023-04-12T10:19:23.915Z,94980.00
2023-04-12T10:20:27.101Z,94980.00
2023-04-12T10:21:23.900Z,94975.00
2023-04-12T10:22:22.923Z,94973.00
2023-04-12T10:23:23.946Z,94973.00
2023-04-12T10:24:23.900Z,94975.00
2023-04-12T10:25:22.906Z,94975.00
2023-04-12T10:26:23.898Z,94971.00
2023-04-12T10:27:22.895Z,94967.00
2023-04-12T10:28:23.883Z,94961.00
2023-04-12T10:29:22.871Z,94955.00
2023-04-12T10:30:23.850Z,94953.00
2023-04-12T10:31:23.987Z,94957.00
2023-04-12T10:32:23.921Z,94955.00
2023-04-12T10:33:22.917Z,94953.00
2023-04-12T10:34:23.823Z,94957.00
2023-04-12T10:35:23.793Z,94953.00
2023-04-12T10:36:23.874Z,94949.00
2023-04-12T10:37:23.797Z,94939.00
2023-04-12T10:38:23.815Z,94941.00
2023-04-12T10:39:23.810Z,94939.00
2023-04-12T10:40:23.799Z,94937.00
2023-04-12T10:41:22.819Z,94935.00
2023-04-12T10:42:23.807Z,94929.00
2023-04-12T10:43:23.854Z,94926.00
2023-04-12T10:44:22.740Z,94920.00
2023-04-12T10:45:22.777Z,94918.00
2023-04-12T10:46:22.775Z,94914.00
2023-04-12T10:47:23.817Z,94916.00
2023-04-12T10:48:23.933Z,94908.00
2023-04-12T10:49:22.737Z,94894.00
2023-04-12T10:50:23.772Z,94892.00
2023-04-12T10:51:23.754Z,94884.00
2023-04-12T10:52:22.745Z,94883.00
2023-04-12T10:53:22.802Z,94883.00
2023-04-12T10:54:23.791Z,94886.00
2023-04-12T10:55:23.860Z,94884.00
2023-04-12T10:56:22.816Z,94883.00
2023-04-12T10:57:22.821Z,94881.00
2023-04-12T10:58:23.932Z,94877.00
2023-04-12T10:59:27.083Z,94883.00
2023-04-12T11:00:23.823Z,94879.00
2023-04-12T11:01:23.946Z,94884.00
2023-04-12T11:02:23.977Z,94881.00
2023-04-12T11:03:23.901Z,94875.00
2023-04-12T11:04:24.018Z,94877.00
2023-04-12T11:05:22.871Z,94875.00
2023-04-12T11:06:27.435Z,94873.00
2023-04-12T11:07:23.735Z,94871.00
2023-04-12T11:08:23.758Z,94865.00
2023-04-12T11:09:23.730Z,94861.00
2023-04-12T11:10:23.745Z,94859.00
2023-04-12T11:11:23.884Z,94859.00
2023-04-12T11:12:23.809Z,94855.00
2023-04-12T11:13:23.877Z,94857.00
2023-04-12T11:14:23.918Z,94857.00
2023-04-12T11:15:23.995Z,94851.00
2023-04-12T11:16:24.081Z,94843.00
2023-04-12T11:17:23.977Z,94839.00
2023-04-12T11:18:24.175Z,94833.00
2023-04-12T11:19:24.208Z,94829.00
2023-04-12T11:20:24.289Z,94831.00
2023-04-12T11:21:24.343Z,94828.00
2023-04-12T11:22:24.414Z,94829.00
2023-04-12T11:23:23.448Z,94828.00
2023-04-12T11:24:24.497Z,94826.00
2023-04-12T11:25:24.572Z,94822.00
2023-04-12T11:26:24.613Z,94818.00
2023-04-12T11:27:24.772Z,94814.00
2023-04-12T11:28:29.720Z,94814.00
2023-04-12T11:29:24.824Z,94820.00
2023-04-12T11:30:23.826Z,94812.00
2023-04-12T11:31:23.733Z,94808.00
2023-04-12T11:32:23.859Z,94802.00
2023-04-12T11:33:24.694Z,94804.00
2023-04-12T11:34:24.705Z,94802.00
2023-04-12T11:35:24.672Z,94798.00
2023-04-12T11:36:24.660Z,94796.00
2023-04-12T11:37:23.686Z,94794.00
2023-04-12T11:38:23.664Z,94789.00
2023-04-12T11:39:23.636Z,94790.00
2023-04-12T11:40:24.654Z,94792.00
2023-04-12T11:41:24.633Z,94787.00
2023-04-12T11:42:24.617Z,94781.00
2023-04-12T11:43:23.633Z,94777.00
2023-04-12T11:44:24.615Z,94773.00
2023-04-12T11:45:24.595Z,94773.00
2023-04-12T11:46:24.646Z,94775.00
2023-04-12T11:47:24.635Z,94771.00
2023-04-12T11:48:23.596Z,94773.00
2023-04-12T11:49:24.561Z,94769.00
2023-04-12T11:50:23.562Z,94769.00
2023-04-12T11:51:23.546Z,94769.00
2023-04-12T11:52:24.573Z,94765.00
2023-04-12T11:53:24.607Z,94763.00
2023-04-12T11:54:24.623Z,94759.00
2023-04-12T11:55:24.656Z,94753.00
2023-04-12T11:56:23.668Z,94753.00
2023-04-12T11:57:23.656Z,94755.00
2023-04-12T11:58:23.700Z,94755.00
2023-04-12T11:59:24.697Z,94753.00
2023-04-12T12:00:23.696Z,94757.00
2023-04-12T12:01:25.406Z,94751.00
2023-04-12T12:02:25.839Z,94749.00
2023-04-12T12:03:23.851Z,94747.00
2023-04-12T12:04:24.878Z,94749.00
2023-04-12T12:05:24.940Z,94745.00
2023-04-12T12:06:23.959Z,94747.00
2023-04-12T12:07:25.086Z,94745.00
2023-04-12T12:08:23.925Z,94745.00
2023-04-12T12:09:24.878Z,94745.00
2023-04-12T12:10:40.023Z,94743.00
2023-04-12T12:11:24.888Z,94741.00
2023-04-12T12:12:24.858Z,94737.00
2023-04-12T12:13:23.899Z,94739.00
2023-04-12T12:14:24.858Z,94735.00
2023-04-12T12:15:24.983Z,94735.00
2023-04-12T12:16:25.050Z,94735.00
2023-04-12T12:17:24.871Z,94732.00
2023-04-12T12:18:23.851Z,94732.00
2023-04-12T12:19:24.822Z,94732.00
2023-04-12T12:20:23.861Z,94728.00
2023-04-12T12:21:24.830Z,94726.00
2023-04-12T12:22:24.824Z,94724.00
2023-04-12T12:23:24.801Z,94724.00
2023-04-12T12:24:24.786Z,94722.00
2023-04-12T12:25:24.757Z,94718.00
2023-04-12T12:26:24.780Z,94720.00
2023-04-12T12:27:23.786Z,94716.00
2023-04-12T12:28:23.772Z,94720.00
2023-04-12T12:29:24.735Z,94718.00
2023-04-12T12:30:24.731Z,94720.00
2023-04-12T12:31:24.790Z,94716.00
2023-04-12T12:32:23.859Z,94712.00
2023-04-12T12:33:35.075Z,94708.00
2023-04-12T12:34:24.737Z,94704.00
2023-04-12T12:35:24.699Z,94698.00
2023-04-12T12:36:23.685Z,94700.00
2023-04-12T12:37:23.672Z,94696.00
2023-04-12T12:38:31.421Z,94696.00
2023-04-12T12:39:24.683Z,94694.00
2023-04-12T12:40:23.667Z,94692.00
2023-04-12T12:41:24.656Z,94692.00
2023-04-12T12:42:23.651Z,94688.00
2023-04-12T12:43:24.627Z,94688.00
2023-04-12T12:44:23.631Z,94687.00
2023-04-12T12:45:24.647Z,94685.00
2023-04-12T12:46:23.653Z,94681.00
2023-04-12T12:47:24.661Z,94685.00
2023-04-12T12:48:23.634Z,94681.00
2023-04-12T12:49:23.615Z,94683.00
2023-04-12T12:50:24.897Z,94679.00
2023-04-12T12:51:24.574Z,94683.00
2023-04-12T12:52:23.572Z,94681.00
2023-04-12T12:53:24.766Z,94677.00
2023-04-12T12:54:39.413Z,94673.00
2023-04-12T12:55:24.563Z,94673.00
2023-04-12T12:56:24.552Z,94671.00
2023-04-12T12:57:24.537Z,94671.00
2023-04-12T12:58:24.540Z,94669.00
2023-04-12T12:59:25.976Z,94667.00
2023-04-12T13:00:24.666Z,94665.00
2023-04-12T13:01:24.694Z,94665.00
2023-04-12T13:02:23.759Z,94665.00
2023-04-12T13:03:24.846Z,94663.00
2023-04-12T13:04:23.773Z,94659.00
2023-04-12T13:05:23.791Z,94653.00
2023-04-12T13:06:23.680Z,94657.00
2023-04-12T13:07:24.702Z,94651.00
2023-04-12T13:08:23.700Z,94649.00
2023-04-12T13:09:24.735Z,94636.00
2023-04-12T13:10:23.756Z,94632.00
2023-04-12T13:11:23.701Z,94628.00
2023-04-12T13:12:23.704Z,94630.00
2023-04-12T13:13:24.713Z,94634.00
2023-04-12T13:14:24.703Z,94632.00
2023-04-12T13:15:24.790Z,94634.00
2023-04-12T13:16:26.264Z,94636.00
2023-04-12T13:17:24.693Z,94636.00
2023-04-12T13:18:24.676Z,94638.00
2023-04-12T13:19:24.747Z,94638.00
2023-04-12T13:20:23.663Z,94636.00
2023-04-12T13:21:24.679Z,94640.00
2023-04-12T13:22:24.651Z,94642.00
2023-04-12T13:23:24.655Z,94640.00
2023-04-12T13:24:24.655Z,94638.00
2023-04-12T13:25:24.659Z,94634.00
2023-04-12T13:26:23.639Z,94638.00
2023-04-12T13:27:24.626Z,94638.00
2023-04-12T13:28:24.635Z,94638.00
2023-04-12T13:29:23.631Z,94636.00
2023-04-12T13:30:23.593Z,94634.00
2023-04-12T13:31:24.593Z,94632.00
2023-04-12T13:32:24.606Z,94628.00
2023-04-12T13:33:24.730Z,94626.00
2023-04-12T13:34:24.576Z,94626.00
2023-04-12T13:35:24.603Z,94622.00
2023-04-12T13:36:23.575Z,94624.00
2023-04-12T13:37:24.538Z,94624.00
2023-04-12T13:38:24.542Z,94622.00
2023-04-12T13:39:24.531Z,94620.00
2023-04-12T13:40:23.524Z,94616.00
2023-04-12T13:41:23.533Z,94618.00
2023-04-12T13:42:24.506Z,94620.00
2023-04-12T13:43:23.497Z,94618.00
2023-04-12T13:44:23.503Z,94614.00
2023-04-12T13:45:24.501Z,94614.00
2023-04-12T13:46:23.545Z,94616.00
2023-04-12T13:47:24.513Z,94614.00
2023-04-12T13:48:24.527Z,94612.00
2023-04-12T13:49:23.476Z,94612.00
2023-04-12T13:50:23.448Z,94618.00
2023-04-12T13:51:24.539Z,94616.00
2023-04-12T13:52:24.448Z,94618.00
2023-04-12T13:53:24.442Z,94614.00
2023-04-12T13:54:24.438Z,94614.00
2023-04-12T13:55:24.419Z,94612.00
2023-04-12T13:56:24.430Z,94608.00
2023-04-12T13:57:24.396Z,94610.00
2023-04-12T13:58:23.406Z,94606.00
2023-04-12T13:59:24.580Z,94600.00
2023-04-12T14:00:24.376Z,94595.00
2023-04-12T14:01:23.455Z,94591.00
2023-04-12T14:02:23.421Z,94591.00
2023-04-12T14:03:24.382Z,94591.00
2023-04-12T14:04:23.452Z,94593.00
2023-04-12T14:05:24.350Z,94595.00
2023-04-12T14:06:23.348Z,94589.00
2023-04-12T14:07:24.395Z,94595.00
2023-04-12T14:08:23.331Z,94591.00
2023-04-12T14:09:24.343Z,94587.00
2023-04-12T14:10:24.319Z,94587.00
2023-04-12T14:11:24.302Z,94583.00
2023-04-12T14:12:24.355Z,94581.00
2023-04-12T14:13:23.409Z,94581.00
2023-04-12T14:14:24.508Z,94579.00
2023-04-12T14:15:24.538Z,94577.00
2023-04-12T14:16:23.592Z,94575.00
2023-04-12T14:17:23.801Z,94573.00
2023-04-12T14:18:23.816Z,94575.00
2023-04-12T14:19:23.773Z,94575.00
2023-04-12T14:20:24.838Z,94573.00
2023-04-12T14:21:24.891Z,94571.00
2023-04-12T14:22:24.959Z,94571.00
2023-04-12T14:23:25.062Z,94569.00
2023-04-12T14:24:25.086Z,94563.00
2023-04-12T14:25:25.141Z,94565.00
2023-04-12T14:26:24.179Z,94563.00
2023-04-12T14:27:25.255Z,94561.00
2023-04-12T14:28:25.305Z,94561.00
2023-04-12T14:29:25.402Z,94565.00
2023-04-12T14:30:25.427Z,94563.00
2023-04-12T14:31:25.604Z,94565.00
2023-04-12T14:32:25.629Z,94565.00
2023-04-12T14:33:24.622Z,94565.00
2023-04-12T14:34:25.767Z,94567.00
2023-04-12T14:35:25.741Z,94569.00
2023-04-12T14:36:24.806Z,94565.00
2023-04-12T14:37:24.838Z,94559.00
2023-04-12T14:38:25.994Z,94557.00
2023-04-12T14:39:24.993Z,94553.00
2023-04-12T14:40:25.041Z,94551.00
2023-04-12T14:41:26.088Z,94549.00
2023-04-12T14:42:26.174Z,94551.00
2023-04-12T14:43:26.206Z,94546.00
2023-04-12T14:44:26.582Z,94544.00
2023-04-12T14:45:25.339Z,94542.00
2023-04-12T14:46:26.445Z,94542.00
2023-04-12T14:47:25.490Z,94540.00
2023-04-12T14:48:25.523Z,94546.00
2023-04-12T14:49:25.592Z,94544.00
2023-04-12T14:50:25.642Z,94544.00
2023-04-12T14:51:25.669Z,94546.00
2023-04-12T14:52:26.718Z,94544.00
2023-04-12T14:53:26.776Z,94542.00
2023-04-12T14:54:26.811Z,94542.00
2023-04-12T14:55:26.912Z,94542.00
2023-04-12T14:56:28.001Z,94544.00
2023-04-12T14:57:26.904Z,94540.00
2023-04-12T14:58:25.912Z,94538.00
2023-04-12T14:59:26.936Z,94538.00
2023-04-12T15:00:25.887Z,94536.00
2023-04-12T15:01:26.889Z,94534.00
2023-04-12T15:02:26.054Z,94536.00
2023-04-12T15:03:26.986Z,94530.00
2023-04-12T15:04:26.006Z,94530.00
2023-04-12T15:05:26.959Z,94526.00
2023-04-12T15:06:25.858Z,94524.00
2023-04-12T15:07:25.872Z,94528.00
2023-04-12T15:08:25.836Z,94528.00
2023-04-12T15:09:26.837Z,94530.00
2023-04-12T15:10:26.817Z,94534.00
2023-04-12T15:11:27.587Z,94534.00
2023-04-12T15:12:26.803Z,94532.00
2023-04-12T15:13:32.398Z,94532.00
2023-04-12T15:14:26.814Z,94528.00
2023-04-12T15:15:25.777Z,94530.00
2023-04-12T15:16:26.789Z,94528.00
2023-04-12T15:17:26.778Z,94532.00
2023-04-12T15:18:26.750Z,94530.00
2023-04-12T15:19:25.754Z,94530.00
2023-04-12T15:20:26.766Z,94528.00
2023-04-12T15:21:25.748Z,94526.00
2023-04-12T15:22:26.729Z,94524.00
2023-04-12T15:23:26.755Z,94522.00
2023-04-12T15:24:26.706Z,94522.00
2023-04-12T15:25:25.707Z,94518.00
2023-04-12T15:26:26.696Z,94518.00
2023-04-12T15:27:26.768Z,94524.00
2023-04-12T15:28:26.701Z,94522.00
2023-04-12T15:29:25.796Z,94526.00
